Time;durP1;ratioP1;P1;durP2;ratioP2;P2;SDS_P1;SDS_P2;PMS_P1;PMS_P2;Temp;Humidity;BMP_temperature;BMP_pressure;BME280_temperature;BME280_humidity;BME280_pressure;Samples;Min_cycle;Max_cycle;Signal;HPM_P1;HPM_P2
2021/08/05 00:01:57;;;;;;;2.70;2.50;;;;;;;19.31;84.40;95951.16;4980527;28;20184;-65
2021/08/05 00:04:22;;;;;;;2.70;2.50;;;;;;;19.32;84.43;95950.88;4993771;28;20569;-65
2021/08/05 00:06:48;;;;;;;3.50;2.73;;;;;;;19.34;84.64;95945.25;4994351;28;20165;-65
2021/08/05 00:09:13;;;;;;;2.50;2.30;;;;;;;19.35;84.53;95938.81;4994347;28;20176;-58
2021/08/05 00:11:38;;;;;;;3.20;2.63;;;;;;;19.32;84.51;95936.75;4990562;28;20177;-58
2021/08/05 00:14:04;;;;;;;3.10;2.70;;;;;;;19.27;84.81;95934.94;4974246;28;20273;-65
2021/08/05 00:16:29;;;;;;;4.27;3.27;;;;;;;19.20;85.09;95936.38;4974771;28;20245;-65
2021/08/05 00:18:55;;;;;;;2.90;2.70;;;;;;;19.21;84.97;95940.63;4974665;28;20746;-65
2021/08/05 00:21:20;;;;;;;3.00;2.80;;;;;;;19.22;84.78;95943.00;4975032;28;20650;-65
2021/08/05 00:23:46;;;;;;;3.23;2.30;;;;;;;19.15;85.33;95947.91;4993570;28;20189;-58
2021/08/05 00:26:13;;;;;;;3.10;2.80;;;;;;;19.23;85.25;95943.78;4993983;28;20185;-58
2021/08/05 00:28:39;;;;;;;2.53;2.33;;;;;;;19.18;85.04;95943.88;4994020;28;20415;-58
2021/08/05 00:31:05;;;;;;;2.87;2.63;;;;;;;19.03;85.72;95944.09;4994118;28;20405;-58
2021/08/05 00:33:31;;;;;;;5.00;2.70;;;;;;;19.07;85.32;95942.44;4975570;28;20421;-65
2021/08/05 00:35:57;;;;;;;2.30;2.20;;;;;;;19.14;85.58;95948.19;4974468;28;20432;-65
2021/08/05 00:38:23;;;;;;;2.73;2.53;;;;;;;19.22;84.69;95948.31;4974591;28;20753;-58
2021/08/05 00:40:48;;;;;;;3.13;2.83;;;;;;;19.22;84.76;95953.66;4974677;28;20174;-65
2021/08/05 00:43:14;;;;;;;3.30;3.00;;;;;;;19.27;84.50;95953.59;4989126;28;20201;-58
2021/08/05 00:45:39;;;;;;;2.97;2.77;;;;;;;19.24;84.94;95958.72;4993733;28;20197;-65
2021/08/05 00:48:05;;;;;;;2.83;2.63;;;;;;;19.31;84.38;95948.50;4994134;28;20174;-65
2021/08/05 00:50:31;;;;;;;3.90;3.07;;;;;;;19.31;84.63;95956.50;4993916;28;20248;-58
2021/08/05 00:52:58;;;;;;;2.33;2.23;;;;;;;19.32;84.63;95958.06;4984766;28;20180;-58
2021/08/05 00:55:23;;;;;;;3.00;2.80;;;;;;;19.33;84.23;95951.66;4997566;28;20838;-65
2021/08/05 00:57:49;;;;;;;3.00;2.80;;;;;;;19.32;84.56;95952.75;4997907;28;20424;-58
2021/08/05 01:00:14;;;;;;;3.67;2.50;;;;;;;19.31;84.61;95956.50;4997633;28;20185;-65
2021/08/05 01:02:53;;;;;;;2.77;2.60;;;;;;;19.29;84.79;95954.09;4987340;28;20209;-58
2021/08/05 01:05:21;;;;;;;2.90;2.70;;;;;;;19.29;84.80;95948.78;4977921;28;20202;-65
2021/08/05 01:07:59;;;;;;;4.13;3.03;;;;;;;19.31;85.28;95946.59;4977909;28;20405;-58
2021/08/05 01:10:44;;;;;;;3.20;2.90;;;;;;;19.29;84.51;95934.66;4978025;28;20918;-58
2021/08/05 01:13:36;;;;;;;2.97;2.50;;;;;;;19.23;84.36;95939.25;4990680;28;20421;-65
2021/08/05 01:16:08;;;;;;;3.07;2.87;;;;;;;19.18;84.61;95941.22;4996600;28;20888;-58
2021/08/05 01:18:37;;;;;;;3.83;3.53;;;;;;;19.16;83.84;95943.38;4996564;28;20424;-65
2021/08/05 01:21:35;;;;;;;3.90;3.57;;;;;;;19.16;83.73;95930.06;4997327;28;20891;-65
2021/08/05 01:24:05;;;;;;;3.37;3.17;;;;;;;19.12;83.95;95942.34;4960602;28;20572;-58
2021/08/05 01:26:31;;;;;;;3.80;3.50;;;;;;;19.15;83.95;95939.91;4977576;28;20765;-65
2021/08/05 01:28:58;;;;;;;4.50;3.50;;;;;;;19.14;84.05;95934.88;4978534;28;20436;-58
2021/08/05 01:31:25;;;;;;;3.70;3.40;;;;;;;19.16;84.09;95935.38;4981860;28;20185;-65
2021/08/05 01:33:52;;;;;;;4.60;3.20;;;;;;;19.17;83.73;95937.75;4996447;28;20416;-65
2021/08/05 01:36:19;;;;;;;3.30;3.10;;;;;;;19.13;84.14;95938.63;4997005;28;20471;-65
2021/08/05 01:38:47;;;;;;;3.33;3.00;;;;;;;19.11;84.07;95932.78;4996867;28;20408;-58
2021/08/05 01:41:16;;;;;;;3.30;3.10;;;;;;;19.14;83.72;95930.34;4995638;28;20769;-65
2021/08/05 01:43:43;;;;;;;3.57;2.83;;;;;;;19.13;84.01;95925.31;4996294;28;20464;-65
2021/08/05 01:46:10;;;;;;;3.13;2.83;;;;;;;19.18;83.88;95926.03;4996503;28;20436;-65
2021/08/05 01:48:37;;;;;;;3.07;2.77;;;;;;;19.15;84.26;95915.16;4996744;28;20409;-64
2021/08/05 01:51:03;;;;;;;3.70;3.40;;;;;;;19.12;84.63;95921.03;4989973;28;20429;-65
2021/08/05 01:53:29;;;;;;;3.40;3.10;;;;;;;19.11;84.94;95922.16;4995807;28;20926;-58
2021/08/05 01:55:55;;;;;;;2.97;2.77;;;;;;;19.11;84.62;95920.25;4996378;28;20428;-65
2021/08/05 01:58:20;;;;;;;2.77;2.50;;;;;;;19.12;84.74;95919.19;4996512;28;20173;-65
2021/08/05 02:00:45;;;;;;;8.23;3.33;;;;;;;19.13;84.73;95922.66;4981231;28;20538;-65
2021/08/05 02:03:13;;;;;;;2.97;2.77;;;;;;;19.15;84.63;95910.59;4976470;28;20208;-58
2021/08/05 02:06:00;;;;;;;3.50;2.77;;;;;;;19.17;83.98;95913.78;4982646;28;20208;-59
2021/08/05 02:08:35;;;;;;;3.97;3.57;;;;;;;19.16;83.68;95912.19;4996640;28;20401;-65
2021/08/05 02:11:01;;;;;;;3.43;2.80;;;;;;;19.18;83.56;95910.03;4994639;28;20435;-58
2021/08/05 02:13:30;;;;;;;3.60;3.30;;;;;;;19.16;83.60;95906.06;4995472;28;20409;-64
2021/08/05 02:16:05;;;;;;;3.23;3.00;;;;;;;19.11;83.81;95911.50;4995834;28;20248;-65
2021/08/05 02:18:33;;;;;;;3.60;3.30;;;;;;;19.13;83.51;95912.75;4996177;28;20423;-65
2021/08/05 02:21:00;;;;;;;3.53;2.93;;;;;;;19.10;83.89;95905.34;4981573;28;20461;-58
2021/08/05 02:23:26;;;;;;;3.03;2.83;;;;;;;19.15;83.89;95905.28;4976134;28;20465;-58
2021/08/05 02:25:54;;;;;;;4.53;3.20;;;;;;;19.15;83.74;95907.94;4976535;28;20524;-65
2021/08/05 02:28:22;;;;;;;3.60;3.30;;;;;;;19.11;83.90;95906.94;4976475;28;20412;-58
2021/08/05 02:30:49;;;;;;;3.80;3.40;;;;;;;19.13;83.87;95901.34;4980180;28;20422;-65
2021/08/05 02:33:15;;;;;;;4.20;3.30;;;;;;;19.12;83.66;95905.06;4975923;28;20437;-58
2021/08/05 02:35:44;;;;;;;3.33;3.03;;;;;;;19.06;83.82;95899.03;4976340;28;20433;-58
2021/08/05 02:38:11;;;;;;;4.27;3.70;;;;;;;18.97;84.59;95900.75;4976305;28;20401;-58
2021/08/05 02:40:37;;;;;;;5.23;4.20;;;;;;;18.88;85.13;95899.06;4986359;28;20428;-58
2021/08/05 02:43:05;;;;;;;5.67;5.17;;;;;;;18.67;86.86;95903.88;4994659;28;20519;-65
2021/08/05 02:45:32;;;;;;;5.07;4.53;;;;;;;18.61;87.45;95910.34;4994997;28;20455;-65
2021/08/05 02:47:59;;;;;;;4.37;4.00;;;;;;;18.63;87.50;95897.53;4995962;28;20411;-65
2021/08/05 02:50:27;;;;;;;4.67;4.27;;;;;;;18.64;87.66;95901.81;4986421;28;20437;-65
2021/08/05 02:52:53;;;;;;;4.83;4.43;;;;;;;18.72;87.30;95901.13;4975729;28;20406;-58
2021/08/05 02:55:19;;;;;;;5.57;4.40;;;;;;;18.73;87.13;95900.06;4975921;28;20934;-58
2021/08/05 02:57:45;;;;;;;6.03;4.40;;;;;;;18.67;87.80;95895.88;4976052;28;20505;-65
2021/08/05 03:00:11;;;;;;;5.10;4.67;;;;;;;18.71;87.94;95896.09;4982289;28;20499;-65
2021/08/05 03:02:36;;;;;;;8.07;4.83;;;;;;;18.72;87.61;95893.16;4994870;28;20180;-64
2021/08/05 03:05:03;;;;;;;5.23;4.13;;;;;;;18.71;87.95;95894.25;4994728;28;20208;-65
2021/08/05 03:07:28;;;;;;;6.80;5.30;;;;;;;18.68;88.28;95891.38;4995486;28;20220;-58
2021/08/05 03:09:53;;;;;;;5.23;4.73;;;;;;;18.66;88.66;95880.97;4994566;28;20424;-58
2021/08/05 03:12:19;;;;;;;6.00;4.90;;;;;;;18.60;88.78;95887.47;4995227;28;20177;-58
2021/08/05 03:14:44;;;;;;;6.30;5.37;;;;;;;18.45;89.89;95885.81;4994209;28;20256;-58
2021/08/05 03:17:10;;;;;;;5.97;5.37;;;;;;;18.37;89.95;95880.31;4994499;28;20173;-65
2021/08/05 03:19:36;;;;;;;6.10;5.27;;;;;;;18.42;90.03;95888.25;4994244;28;20567;-65
2021/08/05 03:22:03;;;;;;;6.07;4.87;;;;;;;18.32;90.37;95888.34;4995058;28;20401;-65
2021/08/05 03:24:28;;;;;;;5.20;4.80;;;;;;;18.19;91.46;95886.41;4994521;28;20816;-58
2021/08/05 03:26:54;;;;;;;6.20;5.53;;;;;;;18.11;91.81;95884.34;4994947;28;20409;-64
2021/08/05 03:29:19;;;;;;;5.27;4.77;;;;;;;18.20;91.38;95885.31;4994232;28;20181;-58
2021/08/05 03:31:45;;;;;;;7.33;5.83;;;;;;;18.12;92.23;95889.38;4994066;28;20264;-65
2021/08/05 03:34:10;;;;;;;6.20;5.50;;;;;;;18.30;90.90;95891.28;4994189;28;20533;-58
2021/08/05 03:36:35;;;;;;;5.30;4.40;;;;;;;18.42;90.49;95889.03;4994726;28;20203;-65
2021/08/05 03:39:01;;;;;;;6.07;4.83;;;;;;;18.39;90.49;95881.59;4994732;28;20644;-65
2021/08/05 03:41:26;;;;;;;6.20;4.90;;;;;;;18.48;89.90;95881.00;4979234;28;20178;-58
2021/08/05 03:43:51;;;;;;;4.97;4.50;;;;;;;18.54;90.04;95883.28;4974454;28;20198;-59
2021/08/05 03:46:17;;;;;;;5.67;5.03;;;;;;;18.48;90.56;95879.91;4974918;28;20190;-58
2021/08/05 03:48:42;;;;;;;5.70;5.20;;;;;;;18.51;89.95;95883.06;4975212;28;20166;-58
2021/08/05 03:51:08;;;;;;;5.87;5.37;;;;;;;18.53;89.83;95880.91;4987217;28;20178;-58
2021/08/05 03:53:34;;;;;;;5.63;5.07;;;;;;;18.60;89.71;95884.00;4994050;28;20181;-65
2021/08/05 03:55:59;;;;;;;4.80;4.40;;;;;;;18.57;90.02;95887.25;4994418;28;20283;-58
2021/08/05 03:58:25;;;;;;;5.07;4.67;;;;;;;18.59;90.07;95885.88;4994371;28;20502;-65
2021/08/05 04:00:50;;;;;;;7.23;5.17;;;;;;;18.63;90.08;95881.56;4984430;28;20186;-65
2021/08/05 04:03:15;;;;;;;7.77;4.70;;;;;;;18.69;89.89;95888.41;4974535;28;20202;-65
2021/08/05 04:05:41;;;;;;;5.27;4.77;;;;;;;18.76;89.35;95885.38;4974848;28;20198;-58
2021/08/05 04:08:06;;;;;;;5.70;4.77;;;;;;;18.71;89.60;95883.59;4975113;28;20185;-58
2021/08/05 04:10:32;;;;;;;6.40;5.27;;;;;;;18.72;89.69;95885.16;4994326;28;20177;-65
2021/08/05 04:12:57;;;;;;;5.73;5.17;;;;;;;18.67;89.62;95887.91;4993685;28;20162;-65
2021/08/05 04:15:23;;;;;;;5.80;5.20;;;;;;;18.66;89.62;95885.53;4993991;28;20220;-65
2021/08/05 04:17:48;;;;;;;5.63;4.53;;;;;;;18.66;89.53;95882.88;4994108;28;20177;-65
2021/08/05 04:20:14;;;;;;;5.60;5.10;;;;;;;18.66;89.87;95885.53;4976657;28;20641;-58
2021/08/05 04:22:39;;;;;;;6.63;4.53;;;;;;;18.67;89.10;95889.75;4974346;28;20177;-65
2021/08/05 04:25:06;;;;;;;5.10;4.60;;;;;;;18.68;89.04;95886.81;4974502;28;20201;-58
2021/08/05 04:27:31;;;;;;;6.83;4.43;;;;;;;18.57;89.54;95892.59;4975856;28;20621;-58
2021/08/05 04:29:57;;;;;;;4.67;4.27;;;;;;;18.57;89.06;95892.59;4992576;28;20496;-65
2021/08/05 04:32:23;;;;;;;5.60;5.10;;;;;;;18.53;89.58;95888.91;4996684;28;20632;-65
2021/08/05 04:34:48;;;;;;;7.53;5.43;;;;;;;18.54;89.54;95891.28;4997617;28;20181;-58
2021/08/05 04:37:15;;;;;;;5.97;5.37;;;;;;;18.71;88.71;95894.25;4997488;28;20260;-65
2021/08/05 04:39:40;;;;;;;6.70;5.80;;;;;;;18.77;88.42;95902.94;4995960;28;20200;-58
2021/08/05 04:42:06;;;;;;;8.13;6.10;;;;;;;18.71;88.90;95904.09;4997576;28;20448;-58
2021/08/05 04:44:31;;;;;;;11.83;6.40;;;;;;;18.63;88.95;95897.53;4996798;28;20209;-64
2021/08/05 04:46:56;;;;;;;6.63;4.67;;;;;;;18.61;89.44;95897.03;4997721;28;20180;-64
2021/08/05 04:49:22;;;;;;;6.80;5.73;;;;;;;18.66;89.39;95902.28;4988684;28;20205;-58
2021/08/05 04:51:49;;;;;;;5.70;5.20;;;;;;;18.67;89.34;95892.44;4995080;28;20181;-64
2021/08/05 04:54:14;;;;;;;6.70;5.67;;;;;;;18.73;89.21;95892.09;4997236;28;20468;-64
2021/08/05 04:56:39;;;;;;;7.07;5.60;;;;;;;18.75;88.90;95895.22;4997667;28;20440;-64
2021/08/05 04:59:05;;;;;;;6.43;5.20;;;;;;;18.73;89.03;95893.94;4990917;28;20182;-64
2021/08/05 05:01:30;;;;;;;5.27;4.87;;;;;;;18.55;90.22;95895.53;4988990;28;20181;-58
2021/08/05 05:03:56;;;;;;;6.00;5.00;;;;;;;18.45;90.23;95891.13;4997053;28;20737;-64
2021/08/05 05:06:21;;;;;;;5.17;4.77;;;;;;;18.53;89.78;95894.22;4996854;28;20181;-58
2021/08/05 05:08:46;;;;;;;5.07;4.50;;;;;;;18.63;89.42;95892.22;4996785;28;20182;-64
2021/08/05 05:11:12;;;;;;;4.83;4.53;;;;;;;18.66;89.27;95891.63;4997019;28;20732;-59
2021/08/05 05:13:37;;;;;;;5.13;4.63;;;;;;;18.61;88.87;95899.69;4996806;28;20196;-58
2021/08/05 05:16:03;;;;;;;5.10;4.43;;;;;;;18.62;89.38;95890.66;4997412;28;20169;-64
2021/08/05 05:18:28;;;;;;;5.03;4.40;;;;;;;18.61;89.06;95897.03;4996969;28;20169;-62
2021/08/05 05:20:54;;;;;;;5.90;5.17;;;;;;;18.68;89.01;95888.69;4977737;28;20532;-64
2021/08/05 05:23:20;;;;;;;5.20;4.47;;;;;;;18.77;88.73;95890.41;4991508;28;20193;-64
2021/08/05 05:25:46;;;;;;;6.20;5.60;;;;;;;18.69;88.87;95884.94;4995370;28;20751;-64
2021/08/05 05:28:12;;;;;;;5.03;4.63;;;;;;;18.69;89.06;95882.28;4996870;28;20431;-64
2021/08/05 05:30:38;;;;;;;10.07;6.43;;;;;;;18.59;89.60;95890.44;4982486;28;20416;-63
2021/08/05 05:33:04;;;;;;;8.37;5.70;;;;;;;18.63;89.42;95886.88;4996576;28;20914;-58
2021/08/05 05:35:30;;;;;;;11.70;6.40;;;;;;;18.49;90.00;95883.38;4996839;28;20432;-64
2021/08/05 05:37:56;;;;;;;6.43;5.83;;;;;;;18.57;89.54;95881.94;4996989;28;20208;-58
2021/08/05 05:40:22;;;;;;;6.30;5.03;;;;;;;18.69;89.11;95887.63;4994065;28;20177;-63
2021/08/05 05:42:49;;;;;;;8.37;6.30;;;;;;;18.67;89.66;95884.44;4996463;28;20413;-64
2021/08/05 05:45:16;;;;;;;6.10;5.60;;;;;;;18.66;89.40;95883.66;4996479;28;20809;-58
2021/08/05 05:47:42;;;;;;;7.03;5.50;;;;;;;18.55;89.61;95884.88;4996366;28;20424;-64
2021/08/05 05:50:09;;;;;;;7.00;5.30;;;;;;;18.44;90.17;95880.78;4984080;28;20440;-64
2021/08/05 05:52:35;;;;;;;6.07;4.43;;;;;;;18.45;89.91;95890.34;4976981;28;20418;-61
2021/08/05 05:55:00;;;;;;;5.67;5.13;;;;;;;18.46;89.81;95887.38;4976885;28;20436;-58
2021/08/05 05:57:25;;;;;;;5.33;4.80;;;;;;;18.40;90.11;95883.19;4988681;28;20264;-64
2021/08/05 05:59:51;;;;;;;7.40;5.00;;;;;;;18.36;90.59;95886.69;4988372;28;20174;-58
2021/08/05 06:02:16;;;;;;;7.50;4.67;;;;;;;18.28;91.14;95879.38;4991427;28;20209;-63
2021/08/05 06:04:41;;;;;;;5.27;4.50;;;;;;;18.11;92.17;95877.19;4995829;28;20668;-57
2021/08/05 06:07:07;;;;;;;8.73;3.80;;;;;;;18.03;92.01;95875.13;4996466;28;20257;-64
2021/08/05 06:09:32;;;;;;;5.70;4.30;;;;;;;18.05;91.52;95878.31;4994532;28;20181;-57
2021/08/05 06:11:58;;;;;;;4.90;4.40;;;;;;;18.06;91.86;95871.91;4996785;28;20257;-57
2021/08/05 06:14:23;;;;;;;5.10;3.70;;;;;;;18.21;91.41;95879.69;4995398;28;20204;-63
2021/08/05 06:16:48;;;;;;;4.27;3.87;;;;;;;18.21;91.20;95874.38;4996056;28;20177;-57
2021/08/05 06:19:14;;;;;;;5.20;4.00;;;;;;;18.34;90.76;95881.66;4996003;28;20659;-63
2021/08/05 06:21:40;;;;;;;4.47;4.10;;;;;;;18.44;90.11;95872.81;4976840;28;20174;-63
2021/08/05 06:24:06;;;;;;;6.03;4.43;;;;;;;18.41;89.43;95878.66;4976040;28;20206;-63
2021/08/05 06:26:31;;;;;;;3.90;3.60;;;;;;;18.35;89.61;95869.94;4976470;28;20421;-57
2021/08/05 06:28:57;;;;;;;6.00;3.23;;;;;;;18.44;89.49;95872.81;4985096;28;20824;-63
2021/08/05 06:31:22;;;;;;;3.80;3.50;;;;;;;18.53;88.60;95873.75;4979848;28;20206;-62
2021/08/05 06:33:51;;;;;;;3.80;3.37;;;;;;;18.63;88.73;95876.25;4995489;28;20181;-58
2021/08/05 06:36:17;;;;;;;5.40;3.67;;;;;;;18.72;88.63;95871.06;4995899;28;20644;-63
2021/08/05 06:38:42;;;;;;;7.10;4.30;;;;;;;18.68;88.15;95870.84;4995890;28;20763;-63
2021/08/05 06:41:08;;;;;;;5.03;3.70;;;;;;;18.56;88.23;95872.34;4981468;28;20435;-64
2021/08/05 06:43:33;;;;;;;5.20;4.07;;;;;;;18.63;88.42;95868.25;4983567;28;20220;-57
2021/08/05 06:45:59;;;;;;;3.97;3.57;;;;;;;18.70;87.88;95871.34;4995390;28;20208;-57
2021/08/05 06:48:24;;;;;;;3.40;3.10;;;;;;;18.72;88.94;95876.38;4995694;28;20664;-57
2021/08/05 06:50:50;;;;;;;3.70;3.20;;;;;;;18.82;87.67;95869.06;4993870;28;20190;-58
2021/08/05 06:53:16;;;;;;;4.83;3.80;;;;;;;18.96;86.55;95879.75;4994723;28;20170;-58
2021/08/05 06:55:42;;;;;;;8.63;3.43;;;;;;;19.08;85.59;95880.88;4995322;28;20243;-63
2021/08/05 06:58:07;;;;;;;4.90;3.53;;;;;;;19.07;85.74;95883.84;4995181;28;20948;-63
2021/08/05 07:00:32;;;;;;;3.47;3.10;;;;;;;19.06;85.37;95885.69;4994656;28;20177;-57
2021/08/05 07:02:58;;;;;;;3.90;3.60;;;;;;;19.02;84.56;95884.69;4995025;28;20279;-64
2021/08/05 07:05:23;;;;;;;4.70;3.00;;;;;;;19.16;83.44;95880.22;4995208;28;20547;-63
2021/08/05 07:07:50;;;;;;;3.57;3.20;;;;;;;19.17;82.96;95881.00;4995288;28;20219;-57
2021/08/05 07:10:16;;;;;;;2.93;2.63;;;;;;;19.30;82.38;95872.25;4994148;28;20236;-63
2021/08/05 07:12:41;;;;;;;2.87;2.60;;;;;;;19.29;83.24;95874.16;4994306;28;20918;-58
2021/08/05 07:15:07;;;;;;;4.53;2.70;;;;;;;19.31;83.57;95873.91;4993155;28;20284;-65
2021/08/05 07:17:33;;;;;;;3.83;3.13;;;;;;;19.36;81.98;95877.25;4977645;28;20182;-58
2021/08/05 07:19:58;;;;;;;3.17;2.90;;;;;;;19.54;82.40;95875.63;4992986;28;20453;-58
2021/08/05 07:22:23;;;;;;;3.07;2.77;;;;;;;19.71;81.30;95875.81;4995044;28;20176;-58
2021/08/05 07:24:49;;;;;;;3.47;3.17;;;;;;;19.79;81.18;95871.69;4994335;28;20280;-58
2021/08/05 07:27:14;;;;;;;3.30;2.90;;;;;;;19.80;79.44;95875.94;4994524;28;20275;-58
2021/08/05 07:29:40;;;;;;;2.37;2.17;;;;;;;19.87;79.71;95871.00;4994804;28;20259;-66
2021/08/05 07:32:06;;;;;;;3.00;2.80;;;;;;;20.03;79.82;95865.09;4976862;28;20182;-66
2021/08/05 07:34:33;;;;;;;2.77;2.20;;;;;;;20.12;79.01;95860.63;4974876;28;20190;-58
2021/08/05 07:37:02;;;;;;;3.57;2.23;;;;;;;20.28;78.22;95863.81;4992796;28;20503;-65
2021/08/05 07:39:28;;;;;;;2.97;2.77;;;;;;;20.39;78.31;95857.16;4990557;28;20437;-66
2021/08/05 07:41:54;;;;;;;2.90;2.40;;;;;;;20.35;78.71;95851.63;4994303;28;20428;-65
2021/08/05 07:44:20;;;;;;;3.53;2.80;;;;;;;20.46;76.77;95850.34;4994235;28;20239;-58
2021/08/05 07:46:47;;;;;;;2.90;2.70;;;;;;;20.56;76.61;95853.88;4994330;28;20209;-66
2021/08/05 07:49:14;;;;;;;4.20;2.37;;;;;;;20.58;76.79;95854.38;4983802;28;20206;-58
2021/08/05 07:51:40;;;;;;;3.00;2.70;;;;;;;20.69;76.53;95855.72;4974882;28;20893;-59
2021/08/05 07:54:05;;;;;;;3.20;3.00;;;;;;;20.64;78.42;95856.59;4980961;28;20520;-58
2021/08/05 07:56:31;;;;;;;2.90;2.70;;;;;;;20.58;78.06;95849.81;4974968;28;20581;-66
2021/08/05 07:58:56;;;;;;;3.17;2.97;;;;;;;20.68;76.58;95854.13;4982563;28;20169;-60
2021/08/05 08:01:22;;;;;;;3.03;2.80;;;;;;;20.62;76.78;95856.13;4994311;28;20510;-60
2021/08/05 08:03:47;;;;;;;5.53;3.07;;;;;;;20.57;76.93;95853.56;4991765;28;20194;-66
2021/08/05 08:06:13;;;;;;;3.33;3.03;;;;;;;20.57;76.47;95853.56;4990150;28;20292;-64
2021/08/05 08:08:39;;;;;;;3.40;3.10;;;;;;;20.35;78.83;95864.19;4990424;28;20193;-60
2021/08/05 08:11:04;;;;;;;3.30;3.00;;;;;;;20.36;79.55;95857.78;5002506;28;20185;-64
2021/08/05 08:13:31;;;;;;;5.50;2.87;;;;;;;20.42;79.46;95857.34;4992585;28;20288;-62
2021/08/05 08:15:57;;;;;;;4.20;3.07;;;;;;;20.45;79.63;95859.41;4988741;28;20208;-59
2021/08/05 08:18:23;;;;;;;3.43;2.47;;;;;;;20.51;79.26;95862.00;4975797;28;20456;-63
2021/08/05 08:20:49;;;;;;;4.13;3.10;;;;;;;20.55;77.87;95853.06;4990228;28;20900;-60
2021/08/05 08:23:15;;;;;;;3.30;2.80;;;;;;;20.50;77.11;95855.84;4989728;28;20472;-61
2021/08/05 08:25:40;;;;;;;4.60;3.03;;;;;;;20.41;76.01;95855.78;4980693;28;20663;-60
2021/08/05 08:28:07;;;;;;;4.37;2.70;;;;;;;20.44;76.02;95852.50;4990177;28;20181;-62
2021/08/05 08:30:33;;;;;;;4.63;3.40;;;;;;;20.36;76.33;95849.75;4989629;28;20189;-64
2021/08/05 08:32:59;;;;;;;3.17;2.97;;;;;;;20.43;76.40;95848.28;4989249;28;20443;-61
2021/08/05 08:35:24;;;;;;;4.10;3.20;;;;;;;20.35;77.28;95840.97;4988060;28;20456;-63
2021/08/05 08:37:50;;;;;;;3.20;3.00;;;;;;;20.26;77.30;95848.09;4990248;28;20516;-61
2021/08/05 08:40:16;;;;;;;3.63;2.83;;;;;;;20.35;78.18;95834.81;4990583;28;20193;-64
2021/08/05 08:42:43;;;;;;;2.73;2.53;;;;;;;20.36;77.87;95839.84;4987916;28;20659;-71
2021/08/05 08:45:11;;;;;;;2.77;2.57;;;;;;;20.36;78.14;95839.09;4990440;28;20546;-66
2021/08/05 08:47:38;;;;;;;2.90;2.70;;;;;;;20.24;77.60;95839.59;4979988;28;20528;-59
2021/08/05 08:50:04;;;;;;;3.23;2.80;;;;;;;20.48;77.62;95842.00;4971031;28;20877;-63
2021/08/05 08:52:33;;;;;;;2.70;2.50;;;;;;;20.69;77.01;95837.78;4972956;28;20416;-64
2021/08/05 08:54:59;;;;;;;2.63;2.43;;;;;;;20.83;77.77;95835.09;4973914;28;20865;-64
2021/08/05 08:57:30;;;;;;;4.33;3.00;;;;;;;20.86;77.10;95832.59;4980717;28;20833;-64
2021/08/05 08:59:58;;;;;;;3.60;2.57;;;;;;;20.94;77.35;95841.78;4993885;28;20409;-58
2021/08/05 09:02:23;;;;;;;3.63;2.80;;;;;;;21.05;76.27;95832.44;4993812;28;20404;-64
2021/08/05 09:04:49;;;;;;;2.80;2.53;;;;;;;21.13;74.51;95837.06;4993101;28;20470;-58
2021/08/05 09:07:14;;;;;;;2.47;2.27;;;;;;;21.11;75.25;95834.69;4988013;28;20557;-64
2021/08/05 09:09:40;;;;;;;2.93;2.73;;;;;;;21.04;72.78;95842.34;4974292;28;20178;-57
2021/08/05 09:12:13;;;;;;;2.57;2.37;;;;;;;21.19;73.54;95827.81;4974322;28;20178;-64
2021/08/05 09:14:52;;;;;;;3.10;2.60;;;;;;;21.35;74.28;95821.78;4975096;28;20217;-64
2021/08/05 09:17:30;;;;;;;2.63;2.43;;;;;;;21.59;73.76;95823.31;4980247;28;20993;-64
2021/08/05 09:19:58;;;;;;;2.20;2.10;;;;;;;21.68;70.60;95827.59;4993213;28;20865;-58
2021/08/05 09:22:42;;;;;;;3.30;1.80;;;;;;;21.52;65.95;95833.66;4977821;28;20472;-58
2021/08/05 09:25:27;;;;;;;2.17;2.07;;;;;;;21.57;65.48;95831.66;4977836;28;20488;-58
2021/08/05 09:27:59;;;;;;;2.13;1.70;;;;;;;21.70;66.98;95827.28;4985487;28;20435;-64
2021/08/05 09:30:38;;;;;;;1.97;1.77;;;;;;;21.88;68.85;95824.41;4997095;28;20412;-58
2021/08/05 09:33:11;;;;;;;2.43;1.90;;;;;;;21.63;66.21;95835.78;4996666;28;20408;-58
2021/08/05 09:35:38;;;;;;;3.97;2.23;;;;;;;21.69;66.38;95823.81;4996830;28;20475;-62
2021/08/05 09:38:15;;;;;;;3.60;2.00;;;;;;;21.69;65.01;95823.81;4986950;28;20508;-64
2021/08/05 09:40:41;;;;;;;1.90;1.80;;;;;;;21.74;63.64;95826.34;4977553;28;20410;-58
2021/08/05 09:43:07;;;;;;;1.57;1.47;;;;;;;21.79;64.27;95812.88;4976974;28;20917;-64
2021/08/05 09:45:37;;;;;;;2.03;1.93;;;;;;;21.75;65.30;95809.22;4979185;28;21176;-58
2021/08/05 09:48:03;;;;;;;2.13;1.93;;;;;;;22.10;66.32;95813.59;4996433;28;20173;-61
2021/08/05 09:50:28;;;;;;;2.40;2.20;;;;;;;22.27;65.57;95816.31;4993471;28;20428;-61
2021/08/05 09:53:07;;;;;;;2.23;2.03;;;;;;;22.23;65.73;95815.34;4996231;28;20405;-64
2021/08/05 09:55:35;;;;;;;1.97;1.87;;;;;;;22.22;64.91;95816.47;4994207;28;20193;-62
2021/08/05 09:58:01;;;;;;;1.93;1.80;;;;;;;22.31;66.36;95817.28;4977198;28;20753;-60
2021/08/05 10:00:26;;;;;;;3.73;2.20;;;;;;;22.39;65.11;95810.34;4988760;28;20458;-62
2021/08/05 10:02:52;;;;;;;1.80;1.70;;;;;;;22.26;63.25;95814.75;4996329;28;20184;-62
2021/08/05 10:05:19;;;;;;;2.97;1.90;;;;;;;22.35;64.09;95814.75;4996097;28;20327;-59
2021/08/05 10:07:50;;;;;;;1.73;1.63;;;;;;;22.06;60.62;95820.69;4992940;28;20424;-59
2021/08/05 10:10:17;;;;;;;1.70;1.60;;;;;;;22.07;62.43;95806.19;4996413;28;20452;-62
2021/08/05 10:12:54;;;;;;;1.90;1.80;;;;;;;22.12;62.61;95805.28;4996128;28;20412;-61
2021/08/05 10:15:21;;;;;;;1.50;1.40;;;;;;;22.08;62.69;95812.34;4996104;28;20424;-61
2021/08/05 10:17:52;;;;;;;1.97;1.70;;;;;;;22.14;63.30;95809.19;4976696;28;20417;-62
2021/08/05 10:20:19;;;;;;;2.20;1.60;;;;;;;22.21;62.69;95811.44;4976965;28;20412;-62
2021/08/05 10:22:46;;;;;;;2.00;1.80;;;;;;;22.18;64.87;95796.78;4976303;28;20505;-60
2021/08/05 10:25:14;;;;;;;1.40;1.30;;;;;;;22.31;62.95;95793.16;4976332;28;20437;-59
2021/08/05 10:27:40;;;;;;;2.87;1.70;;;;;;;22.50;62.64;95793.66;4994917;28;20431;-62
2021/08/05 10:30:12;;;;;;;1.60;1.50;;;;;;;22.45;62.85;95780.41;4996105;28;20416;-62
2021/08/05 10:32:38;;;;;;;1.70;1.60;;;;;;;22.65;64.87;95788.97;4995610;28;20180;-61
2021/08/05 10:35:05;;;;;;;1.93;1.27;;;;;;;22.58;58.68;95781.38;4995902;28;20990;-62
2021/08/05 10:37:30;;;;;;;1.33;1.23;;;;;;;22.60;59.01;95779.19;4978801;28;20425;-60
2021/08/05 10:39:56;;;;;;;1.63;1.03;;;;;;;22.48;58.27;95779.78;4976466;28;20757;-59
2021/08/05 10:42:22;;;;;;;2.90;1.40;;;;;;;22.40;62.30;95780.56;4976358;28;20241;-62
2021/08/05 10:44:49;;;;;;;2.20;2.10;;;;;;;22.55;66.01;95771.31;4974462;28;20269;-59
2021/08/05 10:47:25;;;;;;;1.43;1.20;;;;;;;22.44;59.87;95780.72;4989860;28;20686;-59
2021/08/05 10:49:53;;;;;;;1.23;1.13;;;;;;;22.56;60.19;95782.81;4978488;28;20498;-62
2021/08/05 10:52:38;;;;;;;1.20;1.10;;;;;;;22.54;61.86;95771.59;4995696;28;20409;-59
2021/08/05 10:55:04;;;;;;;1.53;1.43;;;;;;;22.63;62.89;95769.75;4985863;28;20438;-62
2021/08/05 10:57:30;;;;;;;2.53;1.67;;;;;;;22.85;61.21;95756.94;4975855;28;20416;-59
2021/08/05 11:00:14;;;;;;;1.70;1.50;;;;;;;23.02;61.61;95756.91;4975882;28;20253;-62
2021/08/05 11:02:54;;;;;;;1.40;1.30;;;;;;;23.23;60.00;95743.59;4975647;28;20406;-60
2021/08/05 11:05:25;;;;;;;1.87;1.40;;;;;;;22.96;60.33;95757.38;4986433;28;20965;-59
2021/08/05 11:08:13;;;;;;;2.70;1.70;;;;;;;23.12;60.40;95745.03;4995140;28;20445;-59
2021/08/05 11:10:38;;;;;;;4.87;1.63;;;;;;;23.13;59.77;95741.28;4985499;28;20429;-59
2021/08/05 11:13:07;;;;;;;1.80;1.70;;;;;;;22.96;59.96;95744.78;4994700;28;20401;-61
2021/08/05 11:15:35;;;;;;;1.90;1.80;;;;;;;22.99;60.56;95746.06;4994938;28;20232;-59
2021/08/05 11:18:06;;;;;;;2.17;1.97;;;;;;;22.97;59.96;95740.22;4994981;28;20438;-59
2021/08/05 11:20:32;;;;;;;1.90;1.73;;;;;;;23.16;61.34;95751.34;4989122;28;20464;-59
2021/08/05 11:22:57;;;;;;;1.40;1.30;;;;;;;23.17;60.44;95736.84;4975172;28;20449;-61
2021/08/05 11:25:23;;;;;;;2.60;1.83;;;;;;;23.40;60.74;95743.56;4975525;28;20237;-59
2021/08/05 11:28:20;;;;;;;1.70;1.60;;;;;;;23.42;60.98;95741.38;4975384;28;20174;-59
2021/08/05 11:30:50;;;;;;;1.67;1.57;;;;;;;23.41;60.49;95740.56;4980290;28;20174;-60
2021/08/05 11:33:33;;;;;;;1.67;1.57;;;;;;;23.47;61.35;95727.75;4994262;28;20428;-62
2021/08/05 11:39:20;;;;;;;2.33;2.13;;;;;;;23.66;60.78;95720.09;4994243;28;20408;-61